createdAt,value
2023-01-13T00:02:01.290Z,98121.69
2023-01-13T00:04:29.265Z,98120.63
2023-01-13T00:06:57.479Z,98111.90
2023-01-13T00:09:25.394Z,98114.16
2023-01-13T00:11:53.408Z,98110.87
2023-01-13T00:14:21.485Z,98106.48
2023-01-13T00:16:49.385Z,98098.80
2023-01-13T00:19:17.385Z,98093.55
2023-01-13T00:21:45.356Z,98096.98
2023-01-13T00:24:13.325Z,98098.34
2023-01-13T00:26:42.407Z,98102.02
2023-01-13T00:29:10.374Z,98106.14
2023-01-13T00:31:38.567Z,98108.40
2023-01-13T00:34:06.518Z,98109.56
2023-01-13T00:36:34.556Z,98110.19
2023-01-13T00:39:03.958Z,98112.28
2023-01-13T00:41:52.029Z,98111.35
2023-01-13T00:44:21.227Z,98108.35
2023-01-13T00:46:49.379Z,98113.20
2023-01-13T00:49:17.382Z,98107.56
2023-01-13T00:51:45.311Z,98112.64
2023-01-13T00:54:13.427Z,98111.89
2023-01-13T00:56:41.579Z,98111.70
2023-01-13T00:59:14.073Z,98112.20
2023-01-13T01:01:42.545Z,98104.66
2023-01-13T01:04:11.317Z,98101.13
2023-01-13T01:06:39.349Z,98103.43
2023-01-13T01:09:07.275Z,98100.61
2023-01-13T01:11:35.339Z,98100.98
2023-01-13T01:14:03.989Z,98097.95
2023-01-13T01:16:34.188Z,98101.17
2023-01-13T01:19:02.537Z,98104.60
2023-01-13T01:21:30.969Z,98102.80
2023-01-13T01:24:00.824Z,98093.29
2023-01-13T01:26:30.323Z,98093.64
2023-01-13T01:28:59.631Z,98091.89
2023-01-13T01:31:32.940Z,98082.45
2023-01-13T01:34:01.530Z,98080.14
2023-01-13T01:36:30.356Z,98080.41
2023-01-13T01:39:00.068Z,98077.11
2023-01-13T01:41:32.470Z,98070.33
2023-01-13T01:44:07.373Z,98063.11
2023-01-13T01:46:38.574Z,98060.03
2023-01-13T01:49:31.725Z,98052.73
2023-01-13T01:52:06.855Z,98055.80
2023-01-13T01:54:40.968Z,98051.59
2023-01-13T01:57:14.381Z,98054.82
2023-01-13T01:59:42.800Z,98059.13
2023-01-13T02:02:11.819Z,98055.11
2023-01-13T02:04:43.460Z,98053.41
2023-01-13T02:07:11.644Z,98044.95
2023-01-13T02:09:39.852Z,98045.45
2023-01-13T02:12:26.687Z,98041.86
2023-01-13T02:14:56.450Z,98037.44
2023-01-13T02:17:42.869Z,98034.45
2023-01-13T02:20:23.015Z,98033.24
2023-01-13T02:23:43.010Z,98027.27
2023-01-13T02:26:32.895Z,98019.36
2023-01-13T02:29:46.196Z,98016.46
2023-01-13T02:32:29.363Z,98013.41
2023-01-13T02:35:21.630Z,98011.88
2023-01-13T02:37:51.100Z,98007.88
2023-01-13T02:40:31.144Z,98003.70
2023-01-13T02:43:25.093Z,98002.59
2023-01-13T02:45:58.906Z,98002.71
2023-01-13T02:48:31.474Z,98000.48
2023-01-13T02:51:10.221Z,97998.95
2023-01-13T02:53:48.206Z,97996.20
2023-01-13T02:56:17.578Z,97993.90
2023-01-13T02:58:47.419Z,97992.07
2023-01-13T03:01:15.393Z,97993.19
2023-01-13T03:03:44.551Z,97996.76
2023-01-13T03:06:41.867Z,97994.89
2023-01-13T03:09:29.934Z,97990.46
2023-01-13T03:12:10.085Z,97983.58
2023-01-13T03:15:03.536Z,97981.38
2023-01-13T03:17:34.533Z,97980.43
2023-01-13T03:20:13.085Z,97981.93
2023-01-13T03:22:50.165Z,97981.36
2023-01-13T03:25:27.035Z,97975.29
2023-01-13T03:27:59.245Z,97975.55
2023-01-13T03:30:29.476Z,97972.62
2023-01-13T03:33:02.910Z,97972.63
2023-01-13T03:35:32.752Z,97967.54
2023-01-13T03:38:06.968Z,97966.61
2023-01-13T03:40:58.918Z,97966.36
2023-01-13T03:43:59.919Z,97971.42
2023-01-13T03:46:53.734Z,97966.04
2023-01-13T03:49:26.622Z,97955.02
2023-01-13T03:51:58.992Z,97967.59
2023-01-13T03:54:31.041Z,97965.85
2023-01-13T03:57:07.606Z,97963.77
2023-01-13T03:59:41.466Z,97964.23
2023-01-13T04:02:19.685Z,97972.45
2023-01-13T04:04:58.551Z,97965.72
2023-01-13T04:07:56.361Z,97964.55
2023-01-13T04:10:52.013Z,97964.68
2023-01-13T04:13:24.376Z,97965.40
2023-01-13T04:15:52.502Z,97964.73
2023-01-13T04:18:26.694Z,97961.14
2023-01-13T04:20:58.332Z,97965.89
2023-01-13T04:23:28.002Z,97968.92
2023-01-13T04:25:56.530Z,97971.58
2023-01-13T04:28:25.331Z,97971.44
2023-01-13T04:30:53.464Z,97970.58
2023-01-13T04:33:21.385Z,97967.45
2023-01-13T04:35:49.746Z,97968.73
2023-01-13T04:38:20.635Z,97955.63
2023-01-13T04:40:48.979Z,97959.45
2023-01-13T04:43:17.896Z,97962.27
2023-01-13T04:45:46.228Z,97964.08
2023-01-13T04:48:14.652Z,97959.64
2023-01-13T04:50:42.632Z,97958.86
2023-01-13T04:53:10.873Z,97958.50
2023-01-13T04:55:38.775Z,97957.16
2023-01-13T04:58:09.413Z,97962.98
2023-01-13T05:00:38.044Z,97958.33
2023-01-13T05:03:07.256Z,97954.89
2023-01-13T05:05:35.958Z,97959.73
2023-01-13T05:08:04.715Z,97957.66
2023-01-13T05:10:32.859Z,97958.45
2023-01-13T05:13:19.264Z,97960.14
2023-01-13T05:16:06.856Z,97957.60
2023-01-13T05:18:37.226Z,97961.52
2023-01-13T05:21:25.295Z,97969.00
2023-01-13T05:24:11.988Z,97968.23
2023-01-13T05:26:39.915Z,97970.04
2023-01-13T05:29:07.790Z,97972.06
2023-01-13T05:31:35.802Z,97967.83
2023-01-13T05:34:03.729Z,97966.45
2023-01-13T05:36:31.711Z,97962.77
2023-01-13T05:38:59.608Z,97961.21
2023-01-13T05:41:46.342Z,97959.32
2023-01-13T05:44:14.501Z,97965.30
2023-01-13T05:46:42.507Z,97961.45
2023-01-13T05:49:10.494Z,97963.70
2023-01-13T05:51:38.499Z,97966.45
2023-01-13T05:54:06.539Z,97960.73
2023-01-13T05:56:35.196Z,97958.93
2023-01-13T05:59:03.262Z,97960.86
2023-01-13T06:01:31.427Z,97954.36
2023-01-13T06:03:59.632Z,97958.02
2023-01-13T06:07:08.132Z,97957.97
2023-01-13T06:09:36.284Z,97961.05
2023-01-13T06:12:04.835Z,97962.73
2023-01-13T06:14:40.118Z,97965.75
2023-01-13T06:17:14.480Z,97966.77
2023-01-13T06:19:43.038Z,97966.25
2023-01-13T06:22:25.304Z,97970.21
2023-01-13T06:24:54.572Z,97972.05
2023-01-13T06:27:23.421Z,97971.54
2023-01-13T06:29:52.445Z,97965.17
2023-01-13T06:32:26.601Z,97968.59
2023-01-13T06:35:05.385Z,97968.58
2023-01-13T06:37:34.834Z,97970.48
2023-01-13T06:40:06.147Z,97972.05
2023-01-13T06:42:55.971Z,97973.64
2023-01-13T06:45:26.284Z,97976.73
2023-01-13T06:47:54.799Z,97974.63
2023-01-13T06:50:24.953Z,97974.27
2023-01-13T06:52:52.966Z,97969.85
2023-01-13T06:55:21.235Z,97967.09
2023-01-13T06:57:57.627Z,97966.48
2023-01-13T07:00:26.933Z,97968.39
2023-01-13T07:03:09.614Z,97962.87
2023-01-13T07:05:38.655Z,97965.55
2023-01-13T07:08:07.583Z,97968.70
2023-01-13T07:10:37.328Z,97967.85
2023-01-13T07:13:24.382Z,97971.73
2023-01-13T07:16:03.613Z,97968.79
2023-01-13T07:18:34.439Z,97973.04
2023-01-13T07:21:05.579Z,97972.63
2023-01-13T07:23:36.719Z,97979.67
2023-01-13T07:26:05.452Z,97977.09
2023-01-13T07:28:33.358Z,97977.45
2023-01-13T07:31:01.932Z,97975.45
2023-01-13T07:33:33.292Z,97984.73
2023-01-13T07:36:04.756Z,97974.03
2023-01-13T07:38:34.336Z,97989.61
2023-01-13T07:41:21.380Z,97990.17
2023-01-13T07:43:50.338Z,97987.45
2023-01-13T07:46:19.114Z,97984.45
2023-01-13T07:48:49.173Z,97980.24
2023-01-13T07:51:17.760Z,97971.50
2023-01-13T07:53:45.601Z,97981.73
2023-01-13T07:56:13.802Z,97982.34
2023-01-13T07:58:42.010Z,97981.30
2023-01-13T08:01:12.675Z,97980.90
2023-01-13T08:03:41.364Z,97984.80
2023-01-13T08:06:11.220Z,97983.19
2023-01-13T08:08:39.635Z,97984.65
2023-01-13T08:11:08.856Z,97990.13
2023-01-13T08:13:37.149Z,97975.40
2023-01-13T08:16:08.733Z,97991.95
2023-01-13T08:18:38.235Z,97989.60
2023-01-13T08:21:13.009Z,97984.16
2023-01-13T08:23:43.399Z,97992.95
2023-01-13T08:26:14.972Z,97991.96
2023-01-13T08:28:43.021Z,97996.27
2023-01-13T08:31:14.349Z,97998.70
2023-01-13T08:33:42.912Z,98000.65
2023-01-13T08:36:12.856Z,98000.57
2023-01-13T08:38:41.901Z,98001.59
2023-01-13T08:41:36.135Z,98004.05
2023-01-13T08:44:06.699Z,98012.83
2023-01-13T08:46:35.737Z,98012.60
2023-01-13T08:49:04.158Z,98011.11
2023-01-13T08:51:32.225Z,97988.77
2023-01-13T08:54:00.401Z,98001.94
2023-01-13T08:56:31.306Z,98001.36
2023-01-13T08:59:00.880Z,98001.13
2023-01-13T09:01:29.181Z,97991.38
2023-01-13T09:03:57.345Z,97995.41
2023-01-13T09:06:25.439Z,97994.81
2023-01-13T09:08:53.399Z,97992.42
2023-01-13T09:11:53.219Z,98000.98
2023-01-13T09:14:23.468Z,98003.54
2023-01-13T09:16:51.496Z,98010.99
2023-01-13T09:19:19.412Z,98008.84
2023-01-13T09:21:47.661Z,98006.47
2023-01-13T09:24:16.064Z,98002.40
2023-01-13T09:26:43.930Z,97998.27
2023-01-13T09:29:14.158Z,97992.36
2023-01-13T09:31:44.214Z,97991.14
2023-01-13T09:34:38.049Z,97989.20
2023-01-13T09:37:07.194Z,97985.43
2023-01-13T09:39:36.423Z,97982.66
2023-01-13T09:42:58.621Z,97979.99
2023-01-13T09:45:32.646Z,97976.86
2023-01-13T09:48:22.282Z,97972.54
2023-01-13T09:51:02.689Z,97975.55
2023-01-13T09:53:37.520Z,97968.23
2023-01-13T09:56:06.221Z,97967.36
2023-01-13T09:58:34.772Z,97968.98
2023-01-13T10:01:29.732Z,97956.85
2023-01-13T10:04:03.718Z,97953.36
2023-01-13T10:06:42.287Z,97954.56
2023-01-13T10:09:46.453Z,97952.71
2023-01-13T10:12:38.152Z,97953.16
2023-01-13T10:15:06.630Z,97949.48
2023-01-13T10:17:44.534Z,97948.89
2023-01-13T10:20:18.144Z,97942.23
2023-01-13T10:22:54.673Z,97948.20
2023-01-13T10:25:38.949Z,97946.92
2023-01-13T10:28:13.130Z,97943.38
2023-01-13T10:30:44.782Z,97937.34
2023-01-13T10:33:41.317Z,97937.52
2023-01-13T10:36:12.225Z,97933.38
2023-01-13T10:38:44.584Z,97936.73
2023-01-13T10:41:15.631Z,97926.38
2023-01-13T10:43:45.165Z,97932.71
2023-01-13T10:46:16.459Z,97930.11
2023-01-13T10:48:53.679Z,97926.40
2023-01-13T10:51:26.461Z,97919.92
2023-01-13T10:54:03.867Z,97919.95
2023-01-13T10:56:34.299Z,97922.63
2023-01-13T10:59:24.230Z,97918.38
2023-01-13T11:02:00.908Z,97911.16
2023-01-13T11:04:51.016Z,97910.16
2023-01-13T11:07:45.972Z,97905.59
2023-01-13T11:10:30.638Z,97902.64
2023-01-13T11:12:58.578Z,97902.79
2023-01-13T11:15:38.731Z,97902.84
2023-01-13T11:18:22.556Z,97905.46
2023-01-13T11:20:53.050Z,97905.89
2023-01-13T11:23:30.424Z,97917.89
2023-01-13T11:26:05.622Z,97920.80
2023-01-13T11:29:02.548Z,97913.52
2023-01-13T11:31:36.391Z,97912.61
2023-01-13T11:34:12.737Z,97910.88
2023-01-13T11:36:46.935Z,97913.00
2023-01-13T11:39:30.102Z,97907.59
2023-01-13T11:42:21.510Z,97907.52
2023-01-13T11:44:57.691Z,97901.56
2023-01-13T11:47:27.095Z,97898.20
2023-01-13T11:49:55.234Z,97897.45
2023-01-13T11:53:05.511Z,97888.37
2023-01-13T11:55:43.757Z,97881.11
2023-01-13T11:58:26.891Z,97885.65
2023-01-13T12:01:03.046Z,97886.92
2023-01-13T12:03:41.588Z,97880.36
2023-01-13T12:06:39.104Z,97881.16
2023-01-13T12:09:28.117Z,97871.73
2023-01-13T12:12:33.260Z,97863.43
2023-01-13T12:15:13.194Z,97858.94
2023-01-13T12:18:11.289Z,97860.05
2023-01-13T12:20:48.630Z,97862.95
2023-01-13T12:23:52.421Z,97865.70
2023-01-13T12:26:21.110Z,97863.69
2023-01-13T12:29:02.592Z,97862.88
2023-01-13T12:31:35.497Z,97867.98
2023-01-13T12:34:06.363Z,97855.76
2023-01-13T12:36:41.430Z,97867.98
2023-01-13T12:39:12.179Z,97860.34
2023-01-13T12:42:11.516Z,97863.18
2023-01-13T12:45:11.216Z,97864.61
2023-01-13T12:47:44.175Z,97871.44
2023-01-13T12:50:36.917Z,97874.73
2023-01-13T12:53:29.158Z,97869.98
2023-01-13T12:56:22.069Z,97872.86
2023-01-13T12:58:50.272Z,97870.17
2023-01-13T13:01:32.552Z,97875.94
2023-01-13T13:04:10.236Z,97874.48
2023-01-13T13:07:13.315Z,97873.58
2023-01-13T13:09:52.629Z,97879.21
2023-01-13T13:13:10.899Z,97882.46
2023-01-13T13:15:39.308Z,97882.55
2023-01-13T13:18:34.017Z,97878.27
2023-01-13T13:21:10.042Z,97883.73
2023-01-13T13:23:57.280Z,97884.27
2023-01-13T13:26:31.856Z,97891.20
2023-01-13T13:29:38.414Z,97894.85
2023-01-13T13:32:33.073Z,97894.44
2023-01-13T13:35:21.065Z,97897.25
2023-01-13T13:38:23.333Z,97904.31
2023-01-13T13:41:10.105Z,97900.99
2023-01-13T13:44:00.903Z,97899.13
2023-01-13T13:46:48.967Z,97895.66
2023-01-13T13:49:36.183Z,97902.15
2023-01-13T13:52:15.545Z,97902.80
2023-01-13T13:54:47.968Z,97901.36
2023-01-13T13:57:42.553Z,97903.62
2023-01-13T14:00:20.126Z,97900.19
2023-01-13T14:02:54.195Z,97901.69
2023-01-13T14:05:25.003Z,97895.69
2023-01-13T14:08:01.817Z,97894.79
2023-01-13T14:10:46.122Z,97896.80
2023-01-13T14:13:23.873Z,97895.54
2023-01-13T14:16:06.548Z,97897.42
2023-01-13T14:18:47.319Z,97899.42
2023-01-13T14:21:28.871Z,97905.80
2023-01-13T14:24:11.890Z,97901.81
2023-01-13T14:26:40.097Z,97904.52
2023-01-13T14:29:24.417Z,97899.64
2023-01-13T14:31:54.839Z,97897.16
2023-01-13T14:34:32.084Z,97905.63
2023-01-13T14:37:03.107Z,97899.20
2023-01-13T14:39:41.230Z,97901.73
2023-01-13T14:42:14.307Z,97901.50
2023-01-13T14:44:47.947Z,97899.29
2023-01-13T14:47:25.459Z,97902.65
2023-01-13T14:50:31.344Z,97911.92
2023-01-13T14:53:00.793Z,97913.35
2023-01-13T14:55:38.693Z,97909.55
2023-01-13T14:58:18.828Z,97914.45
2023-01-13T15:00:47.774Z,97919.59
2023-01-13T15:03:21.117Z,97925.02
2023-01-13T15:05:52.212Z,97923.83
2023-01-13T15:08:34.849Z,97920.44
2023-01-13T15:11:05.494Z,97922.54
2023-01-13T15:13:53.245Z,97915.77
2023-01-13T15:16:25.445Z,97916.96
2023-01-13T15:18:55.523Z,97923.15
2023-01-13T15:21:24.405Z,97923.30
2023-01-13T15:23:52.520Z,97928.85
2023-01-13T15:26:22.445Z,97930.39
2023-01-13T15:28:51.813Z,97937.06
2023-01-13T15:31:20.907Z,97938.28
2023-01-13T15:33:49.672Z,97934.24
2023-01-13T15:36:31.205Z,97934.00
2023-01-13T15:39:00.796Z,97931.39
2023-01-13T15:41:47.560Z,97931.50
2023-01-13T15:44:35.398Z,97935.45
2023-01-13T15:47:06.463Z,97931.98
2023-01-13T15:49:39.392Z,97935.16
2023-01-13T15:52:21.464Z,97940.58
2023-01-13T15:54:50.828Z,97950.61
2023-01-13T15:57:23.076Z,97954.39
2023-01-13T15:59:53.187Z,97961.97
2023-01-13T16:02:22.747Z,97960.64
2023-01-13T16:04:53.981Z,97969.88
2023-01-13T16:07:24.213Z,97978.56
2023-01-13T16:09:52.327Z,97980.58
2023-01-13T16:12:20.364Z,97974.15
2023-01-13T16:14:48.317Z,97979.04
2023-01-13T16:17:19.099Z,97977.90
2023-01-13T16:19:47.911Z,97980.48
2023-01-13T16:22:17.495Z,97985.80
2023-01-13T16:24:45.624Z,97979.92
2023-01-13T16:27:19.494Z,97979.98
2023-01-13T16:29:48.339Z,97976.27
2023-01-13T16:32:17.024Z,97978.77
2023-01-13T16:34:45.097Z,97979.60
2023-01-13T16:37:22.453Z,97979.48
2023-01-13T16:39:51.502Z,97982.19
2023-01-13T16:42:20.968Z,97979.46
2023-01-13T16:44:49.768Z,97979.73
2023-01-13T16:47:19.103Z,97983.70
2023-01-13T16:49:47.133Z,97984.94
2023-01-13T16:52:23.807Z,97986.57
2023-01-13T16:54:52.540Z,97990.65
2023-01-13T16:57:20.506Z,97989.88
2023-01-13T16:59:48.500Z,97991.48
2023-01-13T17:02:20.254Z,97989.95
2023-01-13T17:04:48.871Z,97989.21
2023-01-13T17:07:17.573Z,97991.08
2023-01-13T17:09:45.613Z,97987.31
2023-01-13T17:12:13.682Z,97987.43
2023-01-13T17:14:43.491Z,97989.56
2023-01-13T17:17:22.815Z,97987.27
2023-01-13T17:19:52.107Z,97981.64
2023-01-13T17:22:21.406Z,97984.95
2023-01-13T17:24:49.261Z,97983.60
2023-01-13T17:27:18.729Z,97987.02
2023-01-13T17:29:46.935Z,97982.43
2023-01-13T17:32:18.276Z,97986.08
2023-01-13T17:34:46.281Z,97981.05
2023-01-13T17:37:14.602Z,97995.94
2023-01-13T17:39:44.334Z,97995.41
2023-01-13T17:42:13.498Z,97999.45
2023-01-13T17:45:14.223Z,98001.17
2023-01-13T17:47:42.477Z,97995.42
2023-01-13T17:50:10.636Z,97996.66
2023-01-13T17:52:38.561Z,97994.88
2023-01-13T17:55:06.816Z,98000.27
2023-01-13T17:57:35.912Z,98001.55
2023-01-13T18:00:13.351Z,98005.32
2023-01-13T18:02:46.018Z,98006.42
2023-01-13T18:05:14.110Z,98012.41
2023-01-13T18:07:41.954Z,98021.38
2023-01-13T18:10:10.847Z,98024.77
2023-01-13T18:12:39.300Z,98033.61
2023-01-13T18:15:08.707Z,98038.71
2023-01-13T18:17:37.084Z,98038.67
2023-01-13T18:20:24.715Z,98036.58
2023-01-13T18:23:11.666Z,98040.86
2023-01-13T18:25:58.254Z,98046.47
2023-01-13T18:28:26.096Z,98045.00
2023-01-13T18:30:54.165Z,98049.81
2023-01-13T18:33:22.251Z,98055.38
2023-01-13T18:35:50.685Z,98053.61
2023-01-13T18:38:21.343Z,98056.14
2023-01-13T18:40:49.683Z,98063.32
2023-01-13T18:43:18.016Z,98069.30
2023-01-13T18:45:50.310Z,98073.98
2023-01-13T18:48:18.487Z,98071.14
2023-01-13T18:50:47.704Z,98073.37
2023-01-13T18:53:15.905Z,98071.39
2023-01-13T18:55:45.962Z,98075.76
2023-01-13T18:58:14.294Z,98072.25
2023-01-13T19:00:42.266Z,98072.27
2023-01-13T19:03:10.403Z,98072.71
2023-01-13T19:05:38.545Z,98077.83
2023-01-13T19:08:06.792Z,98076.77
2023-01-13T19:10:34.854Z,98079.03
2023-01-13T19:13:03.265Z,98078.01
2023-01-13T19:15:31.455Z,98079.44
2023-01-13T19:18:00.243Z,98084.94
2023-01-13T19:20:28.264Z,98085.61
2023-01-13T19:22:56.338Z,98092.33
2023-01-13T19:25:24.913Z,98094.74
2023-01-13T19:27:52.816Z,98095.45
2023-01-13T19:30:21.104Z,98094.66
2023-01-13T19:32:49.017Z,98097.77
2023-01-13T19:35:18.161Z,98097.98
2023-01-13T19:37:46.335Z,98104.61
2023-01-13T19:40:14.878Z,98104.95
2023-01-13T19:43:02.668Z,98106.52
2023-01-13T19:45:33.562Z,98114.91
2023-01-13T19:48:02.578Z,98115.13
2023-01-13T19:50:30.701Z,98119.92
2023-01-13T19:52:58.698Z,98122.73
2023-01-13T19:55:26.773Z,98126.11
2023-01-13T19:57:56.117Z,98123.91
2023-01-13T20:00:31.054Z,98125.69
2023-01-13T20:03:03.531Z,98115.45
2023-01-13T20:05:31.709Z,98131.20
2023-01-13T20:07:59.785Z,98119.21
2023-01-13T20:10:30.441Z,98121.75
2023-01-13T20:12:58.819Z,98124.92
2023-01-13T20:15:26.974Z,98128.98
2023-01-13T20:17:56.202Z,98130.48
2023-01-13T20:20:26.898Z,98135.71
2023-01-13T20:22:54.785Z,98136.89
2023-01-13T20:25:22.806Z,98141.85
2023-01-13T20:27:51.067Z,98144.85
2023-01-13T20:30:19.105Z,98145.91
2023-01-13T20:32:47.019Z,98141.27
2023-01-13T20:35:15.376Z,98142.66
2023-01-13T20:37:43.968Z,98145.53
2023-01-13T20:40:15.547Z,98148.73
2023-01-13T20:42:46.430Z,98149.56
2023-01-13T20:45:21.676Z,98161.05
2023-01-13T20:47:49.722Z,98159.94
2023-01-13T20:50:17.886Z,98159.80
2023-01-13T20:52:46.765Z,98152.28
2023-01-13T20:55:15.124Z,98168.31
2023-01-13T20:57:43.188Z,98172.44
2023-01-13T21:00:12.123Z,98179.81
2023-01-13T21:02:41.658Z,98177.52
2023-01-13T21:05:10.284Z,98182.20
2023-01-13T21:07:38.370Z,98184.86
2023-01-13T21:10:08.039Z,98186.42
2023-01-13T21:13:02.275Z,98186.35
2023-01-13T21:15:30.312Z,98192.08
2023-01-13T21:18:16.930Z,98196.82
2023-01-13T21:20:45.887Z,98200.77
2023-01-13T21:23:13.974Z,98196.84
2023-01-13T21:25:41.956Z,98201.01
2023-01-13T21:28:11.789Z,98193.77
2023-01-13T21:30:40.167Z,98196.23
2023-01-13T21:33:13.477Z,98202.42
2023-01-13T21:35:41.634Z,98208.52
2023-01-13T21:38:10.983Z,98209.52
2023-01-13T21:40:39.211Z,98213.71
2023-01-13T21:43:47.271Z,98213.83
2023-01-13T21:46:35.068Z,98214.84
2023-01-13T21:49:04.704Z,98220.91
2023-01-13T21:51:33.887Z,98225.86
2023-01-13T21:54:02.000Z,98228.79
2023-01-13T21:56:29.908Z,98225.81
2023-01-13T21:58:57.882Z,98227.70
2023-01-13T22:01:26.085Z,98231.95
2023-01-13T22:04:16.952Z,98235.75
2023-01-13T22:06:44.989Z,98234.59
2023-01-13T22:09:13.843Z,98234.09
2023-01-13T22:11:41.771Z,98234.13
2023-01-13T22:14:10.177Z,98233.16
2023-01-13T22:16:41.952Z,98233.39
2023-01-13T22:19:10.979Z,98230.91
2023-01-13T22:21:40.075Z,98229.45
2023-01-13T22:24:08.538Z,98226.06
2023-01-13T22:26:36.637Z,98231.21
2023-01-13T22:29:04.713Z,98229.92
2023-01-13T22:31:32.729Z,98237.52
2023-01-13T22:34:00.797Z,98239.34
2023-01-13T22:36:28.728Z,98241.58
2023-01-13T22:38:56.750Z,98246.27
2023-01-13T22:41:25.052Z,98249.07
2023-01-13T22:43:53.062Z,98248.77
2023-01-13T22:46:25.908Z,98246.88
2023-01-13T22:48:55.998Z,98249.66
2023-01-13T22:51:26.729Z,98253.61
2023-01-13T22:54:02.772Z,98251.70
2023-01-13T23:00:02.030Z,98250.70
2023-01-13T23:02:53.843Z,98245.30
2023-01-13T23:05:23.267Z,98260.45
2023-01-13T23:07:51.258Z,98260.56
2023-01-13T23:10:20.609Z,98262.98
2023-01-13T23:13:13.799Z,98259.10
2023-01-13T23:16:21.427Z,98257.11
2023-01-13T23:18:51.575Z,98266.21
2023-01-13T23:21:26.480Z,98263.22
2023-01-13T23:23:56.780Z,98264.25
2023-01-13T23:26:27.687Z,98275.86
2023-01-13T23:29:08.347Z,98275.33
2023-01-13T23:31:36.471Z,98278.27
2023-01-13T23:34:04.650Z,98282.20
2023-01-13T23:36:33.475Z,98277.75
2023-01-13T23:39:01.277Z,98281.60
2023-01-13T23:41:29.323Z,98285.66
2023-01-13T23:44:00.335Z,98284.50
2023-01-13T23:46:30.975Z,98288.95
2023-01-13T23:48:59.009Z,98292.36
2023-01-13T23:51:30.037Z,98291.75
2023-01-13T23:53:59.238Z,98288.65
2023-01-13T23:56:29.912Z,98288.64
2023-01-13T23:58:58.709Z,98293.69
